Time;durP1;ratioP1;P1;durP2;ratioP2;P2;SDS_P1;SDS_P2;PMS_P1;PMS_P2;Temp;Humidity;BMP_temperature;BMP_pressure;BME280_temperature;BME280_humidity;BME280_pressure;Samples;Min_cycle;Max_cycle;Signal;HPM_P1;HPM_P2
2021/05/19 00:01:46;;;;;;;6.63;1.80;;;16.00;99.90;;;;;;5078394;28;20584;-72
2021/05/19 00:04:20;;;;;;;4.67;1.30;;;16.10;99.90;;;;;;5064438;28;20529;-72
2021/05/19 00:06:48;;;;;;;5.30;1.40;;;16.20;99.90;;;;;;5084200;28;20246;-72
2021/05/19 00:09:16;;;;;;;3.67;1.13;;;16.20;99.90;;;;;;5081027;28;20195;-72
2021/05/19 00:11:45;;;;;;;5.80;1.40;;;16.00;99.90;;;;;;5103933;27;20220;-73
2021/05/19 00:14:16;;;;;;;3.83;1.27;;;15.90;99.90;;;;;;5083903;28;20218;-72
2021/05/19 00:16:52;;;;;;;5.00;1.47;;;15.80;99.90;;;;;;5081190;28;20225;-72
2021/05/19 00:19:19;;;;;;;5.13;1.20;;;15.80;99.90;;;;;;5081792;28;20204;-72
2021/05/19 00:21:46;;;;;;;5.57;1.40;;;15.70;99.90;;;;;;5050723;28;20182;-72
2021/05/19 00:24:13;;;;;;;6.77;1.47;;;15.70;99.90;;;;;;5077782;28;20198;-71
2021/05/19 00:26:40;;;;;;;5.63;1.57;;;15.50;99.90;;;;;;5081651;28;20854;-72
2021/05/19 00:29:11;;;;;;;5.80;1.60;;;15.50;99.90;;;;;;5082939;28;20624;-72
2021/05/19 00:31:42;;;;;;;3.97;1.20;;;15.60;99.90;;;;;;5097444;28;20194;-71
2021/05/19 00:34:15;;;;;;;3.17;1.17;;;15.50;99.90;;;;;;5080158;28;20218;-72
2021/05/19 00:36:42;;;;;;;3.83;1.20;;;15.50;99.90;;;;;;5078581;28;20264;-71
2021/05/19 00:39:11;;;;;;;4.60;1.33;;;15.50;99.90;;;;;;5066067;28;20783;-72
2021/05/19 00:41:42;;;;;;;3.37;1.10;;;15.50;99.90;;;;;;5078002;28;20197;-72
2021/05/19 00:44:12;;;;;;;7.50;1.50;;;15.50;99.90;;;;;;5083535;28;20255;-72
2021/05/19 00:46:44;;;;;;;3.87;1.10;;;15.50;99.90;;;;;;5084443;28;20201;-71
2021/05/19 00:49:12;;;;;;;7.00;1.93;;;15.50;99.90;;;;;;5083707;28;20186;-72
2021/05/19 00:51:39;;;;;;;4.97;1.20;;;15.50;99.90;;;;;;5077940;28;20216;-71
2021/05/19 00:54:06;;;;;;;6.53;1.20;;;15.50;99.90;;;;;;5061242;28;20213;-72
2021/05/19 00:56:34;;;;;;;2.50;1.20;;;15.50;99.90;;;;;;5084627;28;20179;-72
2021/05/19 00:59:03;;;;;;;3.60;1.17;;;15.50;99.90;;;;;;5086392;28;20661;-72
2021/05/19 01:01:36;;;;;;;3.33;1.10;;;15.50;99.90;;;;;;5085171;28;20183;-72
2021/05/19 01:04:04;;;;;;;6.67;1.07;;;15.50;99.90;;;;;;5065030;28;20699;-72
2021/05/19 01:06:52;;;;;;;5.00;1.17;;;15.40;99.90;;;;;;5083487;28;20214;-71
2021/05/19 01:09:35;;;;;;;8.00;1.43;;;15.40;99.90;;;;;;5079247;28;20710;-71
2021/05/19 01:12:19;;;;;;;5.77;1.20;;;15.40;99.90;;;;;;5066711;28;20186;-72
2021/05/19 01:14:48;;;;;;;6.37;1.50;;;15.40;99.90;;;;;;5067328;28;20221;-72
2021/05/19 01:17:18;;;;;;;2.80;1.10;;;15.40;99.90;;;;;;5080577;28;20253;-72
2021/05/19 01:19:48;;;;;;;5.20;1.20;;;15.30;99.90;;;;;;5081486;28;20277;-72
2021/05/19 01:22:21;;;;;;;3.67;1.17;;;15.40;99.90;;;;;;5075952;28;20198;-72
2021/05/19 01:24:50;;;;;;;4.10;1.20;;;15.30;99.90;;;;;;5078150;28;20878;-72
2021/05/19 01:27:19;;;;;;;4.13;1.10;;;15.20;99.90;;;;;;5083010;28;20271;-72
2021/05/19 01:29:51;;;;;;;3.67;1.13;;;15.20;99.90;;;;;;5063004;28;20892;-72
2021/05/19 01:32:18;;;;;;;2.70;0.97;;;15.20;99.90;;;;;;5094263;28;20202;-72
2021/05/19 01:34:47;;;;;;;7.47;1.47;;;15.20;99.90;;;;;;5072789;28;20566;-71
2021/05/19 01:37:15;;;;;;;3.40;1.13;;;15.30;99.90;;;;;;5094531;28;20193;-72
2021/05/19 01:39:49;;;;;;;4.70;1.13;;;15.30;99.90;;;;;;5081337;28;20182;-72
2021/05/19 01:42:15;;;;;;;2.47;1.00;;;15.20;99.90;;;;;;5077556;28;20193;-72
2021/05/19 01:44:42;;;;;;;3.57;1.20;;;15.20;99.90;;;;;;5064334;28;20272;-72
2021/05/19 01:47:24;;;;;;;3.80;1.20;;;15.20;99.90;;;;;;5080078;28;20560;-72
2021/05/19 01:49:53;;;;;;;4.83;1.37;;;15.10;99.90;;;;;;5082229;28;20193;-72
2021/05/19 01:52:21;;;;;;;4.10;0.90;;;15.10;99.90;;;;;;5077904;28;20206;-72
2021/05/19 01:54:49;;;;;;;7.10;1.47;;;15.00;99.90;;;;;;5053033;28;20213;-72
2021/05/19 01:57:22;;;;;;;5.67;1.50;;;15.00;99.90;;;;;;5079544;28;20897;-72
2021/05/19 01:59:51;;;;;;;6.23;1.30;;;15.10;99.90;;;;;;5099228;28;20184;-71
2021/05/19 02:02:25;;;;;;;4.27;1.37;;;15.00;99.90;;;;;;5079953;28;20289;-72
2021/05/19 02:04:53;;;;;;;8.37;1.53;;;15.00;99.90;;;;;;5067737;28;20471;-72
2021/05/19 02:07:19;;;;;;;3.77;1.20;;;15.00;99.90;;;;;;5082319;28;20214;-72
2021/05/19 02:09:46;;;;;;;3.30;1.33;;;15.10;99.90;;;;;;5082660;28;20196;-72
2021/05/19 02:12:13;;;;;;;4.23;1.47;;;15.30;99.90;;;;;;5082924;28;20981;-72
2021/05/19 02:14:39;;;;;;;3.67;1.50;;;15.50;99.90;;;;;;5082673;28;20218;-72
2021/05/19 02:17:06;;;;;;;2.70;1.27;;;15.70;99.90;;;;;;5084117;28;20198;-72
2021/05/19 02:19:33;;;;;;;4.30;1.00;;;15.80;99.90;;;;;;5084457;28;20221;-72
2021/05/19 02:21:59;;;;;;;3.00;1.20;;;15.80;99.90;;;;;;5083990;28;20178;-72
2021/05/19 02:24:26;;;;;;;3.53;1.17;;;15.80;99.90;;;;;;5075531;28;20190;-71
2021/05/19 02:26:52;;;;;;;4.70;1.33;;;15.80;99.90;;;;;;5061670;28;20266;-71
2021/05/19 02:29:19;;;;;;;2.57;1.10;;;15.70;99.90;;;;;;5064075;28;20190;-71
2021/05/19 02:31:46;;;;;;;4.63;1.20;;;15.60;99.90;;;;;;5083987;28;20219;-70
2021/05/19 02:34:13;;;;;;;6.87;1.40;;;15.50;99.90;;;;;;5066775;28;20359;-70
2021/05/19 02:36:40;;;;;;;3.57;1.10;;;15.50;99.90;;;;;;5083037;28;20203;-70
2021/05/19 02:39:10;;;;;;;3.97;1.33;;;15.40;99.90;;;;;;5070694;28;20178;-70
2021/05/19 02:41:39;;;;;;;2.33;1.10;;;15.50;99.90;;;;;;5072398;28;20653;-71
2021/05/19 02:44:08;;;;;;;4.90;1.30;;;15.60;99.90;;;;;;5080097;28;20295;-70
2021/05/19 02:46:35;;;;;;;5.07;1.10;;;15.50;99.90;;;;;;5079971;28;20195;-70
2021/05/19 02:49:04;;;;;;;3.50;1.00;;;15.60;99.90;;;;;;5068289;28;20197;-72
2021/05/19 02:51:34;;;;;;;5.27;1.30;;;15.60;99.90;;;;;;5066656;28;20344;-73
2021/05/19 02:54:03;;;;;;;4.97;1.30;;;15.50;99.90;;;;;;5084235;28;20225;-72
2021/05/19 02:56:29;;;;;;;5.87;1.23;;;15.50;99.90;;;;;;5060019;28;20193;-73
2021/05/19 02:58:56;;;;;;;5.23;1.00;;;15.50;99.90;;;;;;5085176;28;20181;-72
2021/05/19 03:01:23;;;;;;;5.70;1.43;;;15.50;99.90;;;;;;5098200;27;20190;-70
2021/05/19 03:03:49;;;;;;;3.17;1.30;;;15.50;99.90;;;;;;5087191;28;20247;-72
2021/05/19 03:06:16;;;;;;;5.10;1.30;;;15.60;99.90;;;;;;5087612;28;20202;-72
2021/05/19 03:08:42;;;;;;;3.37;1.03;;;15.80;99.90;;;;;;5088605;28;20251;-72
2021/05/19 03:11:09;;;;;;;5.87;1.67;;;15.60;99.90;;;;;;5086042;28;20198;-72
2021/05/19 03:13:36;;;;;;;3.27;1.30;;;15.60;99.90;;;;;;5086908;28;20267;-72
2021/05/19 03:16:03;;;;;;;3.67;1.40;;;15.60;99.90;;;;;;5067956;28;20194;-72
2021/05/19 03:18:30;;;;;;;4.23;1.10;;;15.60;99.90;;;;;;5084268;28;20191;-73
2021/05/19 03:20:56;;;;;;;4.33;1.17;;;15.60;99.90;;;;;;5072522;28;20252;-72
2021/05/19 03:23:23;;;;;;;4.70;1.23;;;15.60;99.90;;;;;;5080960;28;20187;-72
2021/05/19 03:25:49;;;;;;;4.43;1.23;;;15.60;99.90;;;;;;5080330;28;20262;-72
2021/05/19 03:28:15;;;;;;;5.97;1.30;;;15.60;99.90;;;;;;5063171;28;20217;-72
2021/05/19 03:30:41;;;;;;;5.07;1.10;;;15.70;99.90;;;;;;5088956;28;20189;-72
2021/05/19 03:33:08;;;;;;;4.03;1.47;;;15.80;99.90;;;;;;5070782;28;20213;-72
2021/05/19 03:35:34;;;;;;;6.63;1.30;;;15.90;99.90;;;;;;5066940;28;20274;-72
2021/05/19 03:38:00;;;;;;;5.30;1.43;;;15.90;99.90;;;;;;5088383;28;20199;-72
2021/05/19 03:40:27;;;;;;;6.13;1.27;;;15.90;99.90;;;;;;5079834;28;20197;-73
2021/05/19 03:42:53;;;;;;;3.00;1.10;;;16.00;99.90;;;;;;5088988;28;20178;-72
2021/05/19 03:45:23;;;;;;;3.43;1.10;;;16.00;99.90;;;;;;5084949;28;20195;-71
2021/05/19 03:47:53;;;;;;;4.30;1.13;;;16.00;99.90;;;;;;5082834;28;20197;-72
2021/05/19 03:50:27;;;;;;;4.73;1.30;;;16.10;99.90;;;;;;5064234;28;20296;-72
2021/05/19 03:52:59;;;;;;;7.77;1.40;;;16.30;99.90;;;;;;5067583;28;20200;-72
2021/05/19 03:55:27;;;;;;;6.03;1.50;;;16.40;99.90;;;;;;5084805;28;20210;-72
2021/05/19 03:57:53;;;;;;;8.13;1.60;;;16.40;99.90;;;;;;5076285;28;20240;-73
2021/05/19 04:00:25;;;;;;;4.53;1.53;;;16.50;99.90;;;;;;5081804;28;20632;-73
2021/05/19 04:02:52;;;;;;;4.27;1.40;;;16.60;99.90;;;;;;5080898;28;20193;-71
2021/05/19 04:05:25;;;;;;;6.33;1.70;;;16.60;99.90;;;;;;5081414;28;20185;-70
2021/05/19 04:07:55;;;;;;;6.70;1.50;;;16.70;99.90;;;;;;5080816;28;20190;-71
2021/05/19 04:10:23;;;;;;;7.27;2.00;;;16.80;99.90;;;;;;5066562;28;20187;-71
2021/05/19 04:12:50;;;;;;;4.17;1.40;;;16.80;99.90;;;;;;5081960;28;20197;-73
2021/05/19 04:15:23;;;;;;;7.13;1.50;;;16.70;99.90;;;;;;5081708;28;20202;-70
2021/05/19 04:17:50;;;;;;;6.83;1.37;;;16.70;99.90;;;;;;5085835;28;20269;-73
2021/05/19 04:20:17;;;;;;;6.03;2.27;;;16.70;99.90;;;;;;5083809;28;20233;-71
2021/05/19 04:22:43;;;;;;;6.37;1.50;;;16.90;99.90;;;;;;5065802;28;20221;-73
2021/05/19 04:25:13;;;;;;;8.47;1.63;;;16.90;99.90;;;;;;5081653;28;20188;-71
2021/05/19 04:27:40;;;;;;;9.13;2.10;;;17.00;99.90;;;;;;5061415;28;20199;-72
2021/05/19 04:30:09;;;;;;;9.90;2.10;;;17.20;99.90;;;;;;5057269;28;20204;-71
2021/05/19 04:32:37;;;;;;;13.00;2.17;;;17.40;99.90;;;;;;5073841;28;20185;-71
2021/05/19 04:35:07;;;;;;;7.23;1.60;;;17.50;99.90;;;;;;5086269;28;20289;-71
2021/05/19 04:37:33;;;;;;;10.23;2.00;;;17.50;99.90;;;;;;5082567;28;20186;-70
2021/05/19 04:40:00;;;;;;;10.77;1.83;;;17.70;99.90;;;;;;5086638;28;20285;-71
2021/05/19 04:42:27;;;;;;;10.23;1.97;;;17.70;99.90;;;;;;5083921;28;20648;-70
2021/05/19 04:44:53;;;;;;;7.13;2.20;;;17.80;99.90;;;;;;5084757;28;20264;-70
2021/05/19 04:47:21;;;;;;;12.00;2.67;;;17.90;99.90;;;;;;5065921;28;20208;-70
2021/05/19 04:49:48;;;;;;;10.07;2.37;;;18.00;99.90;;;;;;5088100;28;20206;-70
2021/05/19 04:52:14;;;;;;;9.00;1.87;;;18.20;99.90;;;;;;5067190;28;20187;-70
2021/05/19 04:54:40;;;;;;;11.47;2.07;;;18.20;99.90;;;;;;5085827;28;20214;-70
2021/05/19 04:57:07;;;;;;;12.40;2.73;;;18.20;99.90;;;;;;5064639;28;20610;-70
2021/05/19 04:59:33;;;;;;;11.70;2.80;;;18.30;99.90;;;;;;5084586;28;20185;-69
2021/05/19 05:01:59;;;;;;;11.00;2.30;;;18.60;99.90;;;;;;5073009;28;20183;-72
2021/05/19 05:04:25;;;;;;;10.93;2.47;;;18.70;99.90;;;;;;5065467;28;20217;-70
2021/05/19 05:06:52;;;;;;;12.13;2.20;;;18.70;99.90;;;;;;5065606;28;20221;-70
2021/05/19 05:09:18;;;;;;;11.60;2.40;;;18.70;99.90;;;;;;5082111;28;20198;-70
2021/05/19 05:11:44;;;;;;;16.23;2.93;;;18.70;99.90;;;;;;5068155;28;20201;-70
2021/05/19 05:14:11;;;;;;;13.00;3.03;;;18.90;99.90;;;;;;5083713;28;20274;-70
2021/05/19 05:16:37;;;;;;;11.77;2.50;;;19.00;99.90;;;;;;5085360;28;20194;-70
2021/05/19 05:19:03;;;;;;;10.87;2.73;;;19.10;99.90;;;;;;5082857;28;20209;-70
2021/05/19 05:21:30;;;;;;;11.07;2.10;;;19.20;99.90;;;;;;5074695;28;20205;-70
2021/05/19 05:23:56;;;;;;;13.47;3.00;;;19.10;99.90;;;;;;5085951;28;20225;-70
2021/05/19 05:26:22;;;;;;;11.83;2.83;;;19.20;99.90;;;;;;5080961;28;20186;-70
2021/05/19 05:28:49;;;;;;;10.13;2.20;;;19.30;99.90;;;;;;5082381;28;20217;-70
2021/05/19 05:31:15;;;;;;;11.10;2.40;;;19.40;99.90;;;;;;5079959;28;20194;-70
2021/05/19 05:33:41;;;;;;;12.07;2.80;;;19.60;99.90;;;;;;5078505;28;20235;-70
2021/05/19 05:36:08;;;;;;;15.30;2.80;;;19.60;99.90;;;;;;5078246;28;20655;-70
2021/05/19 05:38:34;;;;;;;20.10;2.77;;;19.70;99.90;;;;;;5084223;28;20779;-70
2021/05/19 05:41:01;;;;;;;11.73;2.30;;;19.70;99.90;;;;;;5083224;28;20190;-71
2021/05/19 05:43:27;;;;;;;15.83;3.40;;;19.80;99.90;;;;;;5086320;28;20186;-70
2021/05/19 05:45:53;;;;;;;13.93;3.33;;;19.80;99.90;;;;;;5066868;28;20182;-71
2021/05/19 05:48:20;;;;;;;15.83;2.83;;;19.90;99.90;;;;;;5081917;28;20628;-71
2021/05/19 05:50:46;;;;;;;11.30;2.40;;;20.00;99.90;;;;;;5081919;28;20190;-70
2021/05/19 05:53:12;;;;;;;10.17;2.67;;;20.10;99.90;;;;;;5081925;28;20190;-70
2021/05/19 05:55:39;;;;;;;15.10;2.73;;;20.10;99.90;;;;;;5082920;28;20694;-70
2021/05/19 05:58:05;;;;;;;9.20;2.10;;;20.30;99.90;;;;;;5067058;28;20284;-71
2021/05/19 06:00:31;;;;;;;14.77;2.77;;;20.40;99.90;;;;;;5069043;28;20179;-70
2021/05/19 06:02:58;;;;;;;11.37;2.60;;;20.40;99.90;;;;;;5076263;28;20284;-70
2021/05/19 06:05:24;;;;;;;10.07;2.23;;;20.50;99.90;;;;;;5085368;28;20213;-70
2021/05/19 06:07:50;;;;;;;15.37;2.60;;;20.60;99.90;;;;;;5087363;28;20206;-70
2021/05/19 06:10:16;;;;;;;12.73;2.43;;;20.60;99.90;;;;;;5086023;28;20175;-70
2021/05/19 06:12:43;;;;;;;7.43;2.20;;;20.70;99.90;;;;;;5085604;28;20191;-70
2021/05/19 06:15:09;;;;;;;13.10;2.23;;;20.70;99.90;;;;;;5087957;28;20210;-70
2021/05/19 06:17:36;;;;;;;10.07;2.27;;;20.80;99.90;;;;;;5084704;28;20189;-71
2021/05/19 06:20:05;;;;;;;8.17;1.87;;;20.90;99.90;;;;;;5082798;28;20218;-71
2021/05/19 06:22:31;;;;;;;9.37;2.40;;;21.00;99.90;;;;;;5083126;28;20213;-70
2021/05/19 06:24:57;;;;;;;11.77;2.60;;;21.00;99.90;;;;;;5072250;28;20651;-70
2021/05/19 06:27:24;;;;;;;10.97;3.47;;;21.10;99.90;;;;;;5083770;28;20659;-71
2021/05/19 06:29:50;;;;;;;8.63;2.43;;;21.10;99.90;;;;;;5082850;28;20206;-71
2021/05/19 06:32:16;;;;;;;11.80;2.40;;;21.20;99.90;;;;;;5084265;28;20185;-71
2021/05/19 06:34:44;;;;;;;11.77;2.13;;;21.20;99.90;;;;;;5093406;27;20211;-71
2021/05/19 06:37:10;;;;;;;11.30;2.60;;;21.30;99.90;;;;;;5080083;28;20257;-70
2021/05/19 06:39:37;;;;;;;11.10;2.53;;;21.40;99.90;;;;;;5083771;28;20214;-70
2021/05/19 06:42:03;;;;;;;10.50;2.53;;;21.50;99.90;;;;;;5086242;28;20208;-70
2021/05/19 06:44:30;;;;;;;12.87;2.63;;;21.50;99.90;;;;;;5069304;28;20629;-71
2021/05/19 06:46:56;;;;;;;10.73;2.40;;;21.50;99.90;;;;;;5087656;28;20239;-73
2021/05/19 06:49:23;;;;;;;8.60;2.37;;;21.50;99.90;;;;;;5088217;28;20186;-71
2021/05/19 06:51:49;;;;;;;10.73;2.40;;;21.60;99.90;;;;;;5073669;28;20194;-71
2021/05/19 06:54:16;;;;;;;16.13;3.13;;;21.60;99.90;;;;;;5082721;28;20647;-70
2021/05/19 06:56:46;;;;;;;14.93;2.90;;;21.70;99.90;;;;;;5087858;28;20183;-71
2021/05/19 06:59:17;;;;;;;10.87;2.50;;;21.70;99.90;;;;;;5084672;28;20197;-71
2021/05/19 07:01:44;;;;;;;11.97;2.37;;;21.80;99.90;;;;;;5080713;28;20705;-73
2021/05/19 07:04:10;;;;;;;11.53;2.50;;;21.80;99.90;;;;;;5074877;28;20202;-73
2021/05/19 07:06:37;;;;;;;16.93;2.53;;;21.90;99.90;;;;;;5078931;28;20232;-70
2021/05/19 07:09:05;;;;;;;7.87;2.07;;;22.00;99.90;;;;;;5084041;28;20221;-71
2021/05/19 07:11:33;;;;;;;9.17;2.17;;;22.00;99.90;;;;;;5089283;28;20216;-71
2021/05/19 07:14:01;;;;;;;11.37;2.57;;;22.10;99.90;;;;;;5079716;28;20213;-71
2021/05/19 07:16:27;;;;;;;7.57;2.20;;;22.10;99.90;;;;;;5070266;28;20908;-71
2021/05/19 07:18:56;;;;;;;9.70;2.07;;;22.10;99.90;;;;;;5083870;28;20212;-71
2021/05/19 07:21:23;;;;;;;10.87;2.67;;;22.20;99.90;;;;;;5082346;28;20187;-71
2021/05/19 07:23:51;;;;;;;8.77;2.43;;;22.30;99.90;;;;;;5070672;28;20251;-71
2021/05/19 07:26:20;;;;;;;11.13;2.63;;;22.40;99.90;;;;;;5084588;28;20264;-70
2021/05/19 07:28:47;;;;;;;12.80;2.60;;;22.40;99.90;;;;;;5067232;28;20244;-70
2021/05/19 07:31:13;;;;;;;10.00;2.10;;;22.50;99.90;;;;;;5065683;28;20186;-71
2021/05/19 07:33:39;;;;;;;8.80;2.10;;;22.60;99.90;;;;;;5067949;28;20206;-70
2021/05/19 07:36:06;;;;;;;10.97;2.30;;;22.80;99.90;;;;;;5074810;28;20182;-72
2021/05/19 07:38:32;;;;;;;9.87;2.47;;;22.80;99.90;;;;;;5079708;28;20185;-72
2021/05/19 07:40:59;;;;;;;12.20;2.13;;;22.90;99.90;;;;;;5080493;28;20182;-72
2021/05/19 07:43:25;;;;;;;15.00;2.80;;;23.00;99.90;;;;;;5085517;28;20174;-72
2021/05/19 07:45:51;;;;;;;11.47;2.50;;;23.00;99.90;;;;;;5102323;27;20686;-70
2021/05/19 07:48:18;;;;;;;11.13;2.30;;;23.00;99.90;;;;;;5086772;28;20655;-72
2021/05/19 07:50:45;;;;;;;12.27;2.70;;;23.10;99.90;;;;;;5085833;28;20190;-72
2021/05/19 07:53:11;;;;;;;10.30;2.33;;;23.00;99.90;;;;;;5066177;28;20175;-72
2021/05/19 07:58:22;;;;;;;14.70;2.10;;;23.20;99.90;;;;;;5083275;28;20189;-72
2021/05/19 08:01:09;;;;;;;12.17;2.20;;;23.20;99.90;;;;;;5085216;28;20581;-72
2021/05/19 08:03:35;;;;;;;9.50;2.40;;;23.30;99.90;;;;;;5082699;28;20599;-72
2021/05/19 08:06:02;;;;;;;7.93;2.33;;;23.40;99.90;;;;;;5077442;28;20210;-72
2021/05/19 08:08:28;;;;;;;8.13;2.07;;;23.50;99.90;;;;;;5060898;28;20187;-72
2021/05/19 08:10:55;;;;;;;12.17;2.63;;;23.60;99.90;;;;;;5079523;28;20233;-73
2021/05/19 08:13:22;;;;;;;9.93;2.73;;;23.60;99.90;;;;;;5082289;28;20554;-72
2021/05/19 08:15:48;;;;;;;7.17;2.10;;;23.60;99.90;;;;;;5080309;28;20198;-73
2021/05/19 08:18:17;;;;;;;9.23;2.43;;;23.70;99.90;;;;;;5070111;28;20186;-72
2021/05/19 08:20:43;;;;;;;9.73;2.10;;;23.80;99.90;;;;;;5070161;28;20816;-71
2021/05/19 08:23:10;;;;;;;13.67;2.53;;;23.90;99.90;;;;;;5079905;28;20187;-71
2021/05/19 08:25:36;;;;;;;8.60;2.00;;;23.90;99.90;;;;;;5085074;28;20232;-71
2021/05/19 08:28:03;;;;;;;13.60;3.17;;;23.80;99.90;;;;;;5068120;28;20187;-71
2021/05/19 08:30:30;;;;;;;10.83;3.43;;;23.80;99.90;;;;;;5080273;28;20236;-71
2021/05/19 08:32:56;;;;;;;10.27;2.57;;;23.90;99.90;;;;;;5082394;28;20301;-73
2021/05/19 08:35:24;;;;;;;9.50;2.33;;;24.00;99.90;;;;;;5083416;28;20211;-72
2021/05/19 08:37:50;;;;;;;15.30;2.70;;;24.00;99.90;;;;;;5073828;28;20209;-72
2021/05/19 08:40:17;;;;;;;8.00;2.10;;;24.10;99.90;;;;;;5081746;28;20186;-70
2021/05/19 08:42:44;;;;;;;9.93;2.70;;;24.10;99.90;;;;;;5101925;27;20186;-70
2021/05/19 08:45:12;;;;;;;11.77;2.43;;;24.20;99.90;;;;;;5067617;28;20193;-70
2021/05/19 08:47:39;;;;;;;11.97;2.13;;;24.20;99.90;;;;;;5069205;28;20246;-73
2021/05/19 08:50:10;;;;;;;9.47;2.10;;;24.30;99.90;;;;;;5079602;28;20179;-71
2021/05/19 08:52:42;;;;;;;10.93;2.60;;;24.40;99.90;;;;;;5085498;28;20704;-73
2021/05/19 08:55:19;;;;;;;10.90;2.50;;;24.50;99.90;;;;;;5082221;28;20218;-72
2021/05/19 08:57:47;;;;;;;10.43;2.30;;;24.60;99.90;;;;;;5065903;28;20186;-72
2021/05/19 09:00:15;;;;;;;13.27;2.40;;;24.70;99.90;;;;;;5082933;28;20229;-73
2021/05/19 09:02:42;;;;;;;12.93;2.67;;;24.70;99.90;;;;;;5084420;28;20595;-73
2021/05/19 09:05:09;;;;;;;14.87;2.50;;;24.70;99.90;;;;;;5082230;28;20186;-71
2021/05/19 09:07:37;;;;;;;12.70;2.10;;;24.80;99.90;;;;;;5077803;28;20674;-71
2021/05/19 09:10:19;;;;;;;13.23;2.73;;;24.80;99.90;;;;;;5076290;28;20190;-71
2021/05/19 09:12:46;;;;;;;12.90;2.40;;;24.90;99.90;;;;;;5082807;28;20190;-70
2021/05/19 09:15:13;;;;;;;11.70;2.70;;;25.00;99.90;;;;;;5079543;28;20210;-70
2021/05/19 09:17:40;;;;;;;11.98;2.45;;;25.10;99.90;;;;;;5080854;28;20194;-70
2021/05/19 09:20:15;;;;;;;11.13;2.65;;;25.20;99.90;;;;;;5086835;28;20182;-71
2021/05/19 09:22:50;;;;;;;14.90;2.90;;;25.00;99.90;;;;;;5079416;28;20596;-71
2021/05/19 09:25:27;;;;;;;9.97;2.50;;;25.10;99.90;;;;;;5081836;28;20201;-72
2021/05/19 09:27:57;;;;;;;10.07;2.27;;;25.20;99.90;;;;;;5066629;28;20274;-71
2021/05/19 09:30:48;;;;;;;9.27;2.78;;;25.20;99.90;;;;;;5078921;28;20187;-72
2021/05/19 09:33:22;;;;;;;10.73;2.50;;;25.50;99.90;;;;;;5083682;28;20250;-72
2021/05/19 09:36:14;;;;;;;13.48;2.70;;;25.50;99.90;;;;;;5082144;28;20658;-72
2021/05/19 09:38:42;;;;;;;15.02;2.58;;;25.60;99.90;;;;;;5075975;28;20226;-72
2021/05/19 09:41:21;;;;;;;10.52;2.38;;;25.60;99.90;;;;;;5078588;28;20190;-72
2021/05/19 09:43:53;;;;;;;11.55;2.67;;;25.70;99.90;;;;;;5082893;28;21012;-71
2021/05/19 09:46:24;;;;;;;9.88;2.35;;;25.70;99.90;;;;;;5076944;28;20274;-72
2021/05/19 09:49:14;;;;;;;9.80;2.33;;;25.70;99.90;;;;;;5087102;28;20588;-72
2021/05/19 09:51:44;;;;;;;7.45;2.38;;;25.70;99.90;;;;;;5078037;28;20197;-71
2021/05/19 09:54:33;;;;;;;8.88;2.40;;;25.70;99.90;;;;;;5076697;28;20206;-72
2021/05/19 09:57:09;;;;;;;9.25;2.50;;;25.90;99.90;;;;;;5065657;28;20212;-72
2021/05/19 09:59:37;;;;;;;11.25;2.53;;;25.90;99.90;;;;;;5062437;28;20273;-71
2021/05/19 10:02:05;;;;;;;7.93;2.15;;;26.00;99.90;;;;;;5081659;28;20631;-72
2021/05/19 10:04:34;;;;;;;9.90;2.60;;;26.20;99.90;;;;;;5082491;28;20241;-72
2021/05/19 10:07:00;;;;;;;9.27;2.88;;;26.30;99.90;;;;;;5078783;28;20206;-71
2021/05/19 10:09:28;;;;;;;15.52;2.65;;;26.30;99.90;;;;;;5077996;28;20190;-73
2021/05/19 10:11:58;;;;;;;9.68;2.90;;;26.40;99.90;;;;;;5075234;28;20302;-71
2021/05/19 10:14:25;;;;;;;12.10;2.10;;;26.70;99.90;;;;;;5064600;28;20234;-71
2021/05/19 10:17:15;;;;;;;9.75;2.70;;;26.80;99.90;;;;;;5076402;28;20187;-72
2021/05/19 10:19:55;;;;;;;11.05;2.55;;;26.80;99.90;;;;;;5076919;28;20593;-70
2021/05/19 10:22:23;;;;;;;12.27;2.60;;;26.80;99.90;;;;;;5079647;28;20206;-68
2021/05/19 10:27:26;;;;;;;10.63;2.22;;;26.90;99.90;;;;;;5078479;28;20280;-71
2021/05/19 10:29:56;;;;;;;11.57;2.17;;;26.80;99.90;;;;;;5080422;28;20202;-70
2021/05/19 10:32:22;;;;;;;12.70;2.70;;;26.70;99.90;;;;;;5078097;28;20543;-71
2021/05/19 10:34:58;;;;;;;7.70;2.17;;;26.70;99.90;;;;;;5063546;28;20218;-71
2021/05/19 10:37:27;;;;;;;8.95;2.35;;;26.50;99.90;;;;;;5095324;28;20190;-71
2021/05/19 10:40:15;;;;;;;9.40;2.90;;;26.60;99.90;;;;;;5080804;28;20185;-70
2021/05/19 10:42:51;;;;;;;9.15;2.38;;;26.50;99.90;;;;;;5075097;28;20226;-71
2021/05/19 10:45:18;;;;;;;13.93;2.92;;;26.50;99.90;;;;;;5062335;28;20209;-70
2021/05/19 10:47:47;;;;;;;10.57;2.47;;;26.60;99.90;;;;;;5086781;28;20229;-71
2021/05/19 10:50:27;;;;;;;10.70;2.30;;;26.60;99.90;;;;;;5077999;28;20205;-71
2021/05/19 10:58:46;;;;;;;10.32;2.53;;;26.40;99.90;;;;;;5085378;28;20542;-72
2021/05/19 11:01:13;;;;;;;9.48;2.42;;;26.30;99.90;;;;;;5082543;28;20188;-70
2021/05/19 11:04:01;;;;;;;11.30;2.25;;;26.20;99.90;;;;;;5085231;28;20274;-70
2021/05/19 11:06:28;;;;;;;9.07;2.55;;;26.10;99.90;;;;;;5085077;28;20212;-70
2021/05/19 11:09:25;;;;;;;9.95;2.25;;;26.20;99.90;;;;;;5085698;28;21013;-70
2021/05/19 11:12:16;;;;;;;6.85;2.20;;;26.40;99.90;;;;;;5078673;28;20263;-70
2021/05/19 11:14:49;;;;;;;10.45;2.50;;;26.20;99.90;;;;;;5073027;28;20222;-70
2021/05/19 11:17:51;;;;;;;13.70;2.88;;;26.20;99.90;;;;;;5068414;28;20190;-70
2021/05/19 11:20:17;;;;;;;8.07;2.10;;;26.30;99.90;;;;;;5066201;28;20515;-70
2021/05/19 11:22:45;;;;;;;11.73;2.88;;;26.20;99.90;;;;;;5064485;28;20305;-70
2021/05/19 11:25:14;;;;;;;11.32;2.53;;;26.20;99.90;;;;;;5078915;28;20242;-70
2021/05/19 11:27:41;;;;;;;10.15;2.58;;;26.00;99.90;;;;;;5083654;28;20205;-70
2021/05/19 11:30:27;;;;;;;7.72;2.13;;;25.90;99.90;;;;;;5084867;28;20243;-72
2021/05/19 11:33:08;;;;;;;8.77;2.42;;;26.30;99.90;;;;;;5098614;27;20190;-71
2021/05/19 11:35:36;;;;;;;11.75;2.17;;;26.40;99.90;;;;;;5082121;28;20218;-72
2021/05/19 11:38:11;;;;;;;12.00;2.58;;;26.40;99.90;;;;;;5080339;28;20193;-72
2021/05/19 11:40:50;;;;;;;13.02;2.60;;;26.40;99.90;;;;;;5084422;28;20688;-71
2021/05/19 11:43:20;;;;;;;9.85;2.63;;;26.50;99.90;;;;;;5073116;28;20187;-72
2021/05/19 11:45:56;;;;;;;11.18;2.40;;;26.40;99.90;;;;;;5061296;28;20178;-71
2021/05/19 11:48:25;;;;;;;9.32;2.42;;;26.00;99.90;;;;;;5085756;28;20197;-71
2021/05/19 11:50:56;;;;;;;14.90;2.25;;;26.30;99.90;;;;;;5065697;28;20651;-71
2021/05/19 11:53:24;;;;;;;13.75;2.50;;;26.40;99.90;;;;;;5082352;28;20201;-72
2021/05/19 11:55:53;;;;;;;13.55;2.88;;;26.40;99.90;;;;;;5083500;28;20250;-72
2021/05/19 11:58:32;;;;;;;14.88;2.55;;;26.40;99.90;;;;;;5082455;28;20179;-72
2021/05/19 12:01:06;;;;;;;11.52;2.50;;;26.30;99.90;;;;;;5077967;28;20186;-71
2021/05/19 12:03:38;;;;;;;12.60;2.28;;;26.60;99.90;;;;;;5082404;28;20556;-71
2021/05/19 12:06:11;;;;;;;13.20;2.70;;;26.30;99.90;;;;;;5080801;28;20254;-71
2021/05/19 12:08:45;;;;;;;12.98;2.42;;;26.10;99.90;;;;;;5083676;28;20182;-71
2021/05/19 12:11:20;;;;;;;6.95;2.00;;;26.50;99.90;;;;;;5080169;28;20185;-71
2021/05/19 12:14:01;;;;;;;10.88;2.60;;;26.60;99.90;;;;;;5091664;27;20268;-71
2021/05/19 12:16:33;;;;;;;11.48;2.58;;;26.60;99.90;;;;;;5060711;28;20285;-71
2021/05/19 12:19:11;;;;;;;10.75;2.55;;;26.70;99.90;;;;;;5076706;28;20194;-71
2021/05/19 12:21:52;;;;;;;10.35;2.60;;;26.80;99.90;;;;;;5081429;28;20974;-72
2021/05/19 12:24:24;;;;;;;10.63;2.30;;;26.80;99.90;;;;;;5081876;28;20193;-72
2021/05/19 12:26:55;;;;;;;8.95;2.10;;;26.70;99.90;;;;;;5084525;28;20216;-72
2021/05/19 12:29:49;;;;;;;10.13;2.40;;;26.70;99.90;;;;;;5080558;28;20226;-72
2021/05/19 12:32:20;;;;;;;7.70;2.38;;;26.70;99.90;;;;;;5068611;28;20272;-72
2021/05/19 12:35:08;;;;;;;8.52;2.17;;;26.60;99.90;;;;;;5081692;28;20564;-71
2021/05/19 12:37:56;;;;;;;7.28;2.15;;;26.40;99.90;;;;;;5081593;28;20633;-71
2021/05/19 12:40:26;;;;;;;11.27;2.50;;;26.30;99.90;;;;;;5081667;28;20186;-72
2021/05/19 12:42:56;;;;;;;10.98;2.10;;;26.50;99.90;;;;;;5080829;28;20197;-72
2021/05/19 12:45:41;;;;;;;9.98;2.35;;;26.40;99.90;;;;;;5074216;28;20254;-71
2021/05/19 12:48:11;;;;;;;12.30;2.80;;;26.30;99.90;;;;;;5067727;28;20228;-71
2021/05/19 12:50:37;;;;;;;8.55;2.33;;;26.30;99.90;;;;;;5080379;28;20191;-72
2021/05/19 12:53:04;;;;;;;11.70;2.67;;;26.10;99.90;;;;;;5078992;28;20189;-71
2021/05/19 12:55:30;;;;;;;10.48;2.65;;;26.30;99.90;;;;;;5081797;28;20256;-72
2021/05/19 12:58:09;;;;;;;10.70;2.60;;;26.30;99.90;;;;;;5079035;28;20574;-72
2021/05/19 13:00:54;;;;;;;10.45;2.53;;;26.30;99.90;;;;;;5082943;28;20274;-72
2021/05/19 13:03:34;;;;;;;11.18;2.50;;;26.10;99.90;;;;;;5061009;28;20607;-72
2021/05/19 13:06:04;;;;;;;7.25;2.40;;;26.00;99.90;;;;;;5075272;28;20899;-72
2021/05/19 13:08:31;;;;;;;14.43;2.63;;;26.00;99.90;;;;;;5082598;28;20668;-72